createdAt,value
2019-04-10T00:00:47.948Z,1006.45
2019-04-10T00:01:47.494Z,1006.48
2019-04-10T00:02:48.062Z,1006.44
2019-04-10T00:03:48.300Z,1006.47
2019-04-10T00:04:47.487Z,1006.48
2019-04-10T00:05:47.965Z,1006.49
2019-04-10T00:06:48.006Z,1006.47
2019-04-10T00:07:47.976Z,1006.48
2019-04-10T00:08:47.452Z,1006.48
2019-04-10T00:09:47.546Z,1006.47
2019-04-10T00:10:47.956Z,1006.47
2019-04-10T00:11:47.428Z,1006.47
2019-04-10T00:12:47.686Z,1006.48
2019-04-10T00:13:47.419Z,1006.47
2019-04-10T00:14:48.183Z,1006.46
2019-04-10T00:15:48.600Z,1006.47
2019-04-10T00:16:47.390Z,1006.46
2019-04-10T00:17:47.393Z,1006.44
2019-04-10T00:18:48.249Z,1006.47
2019-04-10T00:19:47.705Z,1006.49
2019-04-10T00:20:47.363Z,1006.50
2019-04-10T00:21:47.427Z,1006.51
2019-04-10T00:22:47.355Z,1006.48
2019-04-10T00:23:47.349Z,1006.51
2019-04-10T00:24:48.334Z,1006.50
2019-04-10T00:25:47.336Z,1006.52
2019-04-10T00:26:48.031Z,1006.49
2019-04-10T00:27:47.318Z,1006.51
2019-04-10T00:28:47.696Z,1006.52
2019-04-10T00:29:47.311Z,1006.51
2019-04-10T00:30:47.299Z,1006.54
2019-04-10T00:31:47.291Z,1006.52
2019-04-10T00:32:48.095Z,1006.57
2019-04-10T00:33:47.282Z,1006.58
2019-04-10T00:34:47.660Z,1006.56
2019-04-10T00:35:47.736Z,1006.59
2019-04-10T00:36:47.260Z,1006.50
2019-04-10T00:37:47.248Z,1006.51
2019-04-10T00:38:48.254Z,1006.54
2019-04-10T00:39:47.238Z,1006.53
2019-04-10T00:40:47.872Z,1006.52
2019-04-10T00:41:48.260Z,1006.53
2019-04-10T00:42:47.397Z,1006.59
2019-04-10T00:43:47.204Z,1006.59
2019-04-10T00:44:48.054Z,1006.58
2019-04-10T00:45:47.193Z,1006.61
2019-04-10T00:46:47.182Z,1006.60
2019-04-10T00:47:47.764Z,1006.59
2019-04-10T00:48:48.079Z,1006.62
2019-04-10T00:49:48.181Z,1006.58
2019-04-10T00:50:47.164Z,1006.57
2019-04-10T00:51:47.824Z,1006.59
2019-04-10T00:52:48.220Z,1006.59
2019-04-10T00:53:47.566Z,1006.58
2019-04-10T00:54:47.132Z,1006.60
2019-04-10T00:55:48.129Z,1006.62
2019-04-10T00:56:47.116Z,1006.60
2019-04-10T00:57:47.734Z,1006.62
2019-04-10T00:58:47.869Z,1006.58
2019-04-10T00:59:47.106Z,1006.60
2019-04-10T01:00:47.643Z,1006.56
2019-04-10T01:01:47.822Z,1006.59
2019-04-10T01:02:47.131Z,1006.55
2019-04-10T01:03:48.582Z,1006.59
2019-04-10T01:04:47.067Z,1006.56
2019-04-10T01:05:47.200Z,1006.56
2019-04-10T01:06:47.046Z,1006.54
2019-04-10T01:07:47.157Z,1006.58
2019-04-10T01:08:47.033Z,1006.54
2019-04-10T01:09:47.888Z,1006.52
2019-04-10T01:10:47.013Z,1006.53
2019-04-10T01:11:47.522Z,1006.52
2019-04-10T01:12:47.968Z,1006.55
2019-04-10T01:13:47.414Z,1006.53
2019-04-10T01:14:47.672Z,1006.55
2019-04-10T01:15:46.977Z,1006.52
2019-04-10T01:16:47.355Z,1006.52
2019-04-10T01:17:46.962Z,1006.54
2019-04-10T01:18:47.798Z,1006.57
2019-04-10T01:19:48.032Z,1006.52
2019-04-10T01:20:48.011Z,1006.58
2019-04-10T01:21:46.930Z,1006.51
2019-04-10T01:22:47.676Z,1006.52
2019-04-10T01:23:46.925Z,1006.52
2019-04-10T01:24:48.014Z,1006.50
2019-04-10T01:25:46.908Z,1006.53
2019-04-10T01:26:47.565Z,1006.53
2019-04-10T01:27:47.930Z,1006.51
2019-04-10T01:28:47.143Z,1006.54
2019-04-10T01:29:46.879Z,1006.57
2019-04-10T01:30:46.865Z,1006.50
2019-04-10T01:31:47.680Z,1006.54
2019-04-10T01:32:46.850Z,1006.55
2019-04-10T01:33:47.450Z,1006.56
2019-04-10T01:34:46.839Z,1006.57
2019-04-10T01:35:46.832Z,1006.58
2019-04-10T01:36:46.820Z,1006.60
2019-04-10T01:37:53.513Z,1006.58
2019-04-10T01:38:46.812Z,1006.58
2019-04-10T01:39:46.800Z,1006.59
2019-04-10T01:40:47.634Z,1006.58
2019-04-10T01:41:46.785Z,1006.57
2019-04-10T01:43:00.780Z,1006.64
2019-04-10T01:43:46.854Z,1006.58
2019-04-10T01:44:47.094Z,1006.57
2019-04-10T01:45:46.759Z,1006.55
2019-04-10T01:46:46.751Z,1006.55
2019-04-10T01:47:47.617Z,1006.60
2019-04-10T01:48:46.733Z,1006.60
2019-04-10T01:49:46.962Z,1006.61
2019-04-10T01:50:46.721Z,1006.58
2019-04-10T01:51:47.630Z,1006.59
2019-04-10T01:52:47.151Z,1006.57
2019-04-10T01:53:46.694Z,1006.55
2019-04-10T01:54:47.131Z,1006.57
2019-04-10T01:55:47.089Z,1006.58
2019-04-10T01:56:46.670Z,1006.56
2019-04-10T01:57:46.676Z,1006.59
2019-04-10T01:58:47.694Z,1006.59
2019-04-10T01:59:46.655Z,1006.61
2019-04-10T02:00:46.649Z,1006.58
2019-04-10T02:01:46.638Z,1006.62
2019-04-10T02:02:47.662Z,1006.61
2019-04-10T02:03:46.633Z,1006.62
2019-04-10T02:04:46.616Z,1006.61
2019-04-10T02:05:47.113Z,1006.64
2019-04-10T02:06:46.596Z,1006.64
2019-04-10T02:07:59.437Z,1006.60
2019-04-10T02:08:46.584Z,1006.60
2019-04-10T02:09:47.655Z,1006.60
2019-04-10T02:10:46.570Z,1006.60
2019-04-10T02:11:46.560Z,1006.59
2019-04-10T02:12:47.231Z,1006.56
2019-04-10T02:13:47.606Z,1006.61
2019-04-10T02:14:46.820Z,1006.60
2019-04-10T02:15:46.529Z,1006.63
2019-04-10T02:16:47.288Z,1006.59
2019-04-10T02:17:46.685Z,1006.63
2019-04-10T02:18:46.502Z,1006.61
2019-04-10T02:19:46.495Z,1006.66
2019-04-10T02:20:47.364Z,1006.64
2019-04-10T02:21:47.512Z,1006.68
2019-04-10T02:22:46.472Z,1006.66
2019-04-10T02:23:46.915Z,1006.67
2019-04-10T02:24:47.271Z,1006.68
2019-04-10T02:25:47.213Z,1006.68
2019-04-10T02:26:46.670Z,1006.69
2019-04-10T02:27:46.782Z,1006.66
2019-04-10T02:28:47.080Z,1006.66
2019-04-10T02:29:46.421Z,1006.65
2019-04-10T02:30:47.777Z,1006.65
2019-04-10T02:31:46.885Z,1006.68
2019-04-10T02:32:48.093Z,1006.70
2019-04-10T02:33:47.379Z,1006.68
2019-04-10T02:34:48.321Z,1006.64
2019-04-10T02:35:47.698Z,1006.66
2019-04-10T02:36:46.931Z,1006.66
2019-04-10T02:37:49.528Z,1006.59
2019-04-10T02:38:59.306Z,1006.60
2019-04-10T02:39:50.254Z,1006.58
2019-04-10T02:40:47.488Z,1006.60
2019-04-10T02:41:46.501Z,1006.58
2019-04-10T02:42:47.354Z,1006.64
2019-04-10T02:43:47.469Z,1006.62
2019-04-10T02:44:48.094Z,1006.60
2019-04-10T02:45:46.977Z,1006.62
2019-04-10T02:46:47.346Z,1006.63
2019-04-10T02:47:47.451Z,1006.65
2019-04-10T02:48:47.581Z,1006.62
2019-04-10T02:49:47.098Z,1006.66
2019-04-10T02:50:46.257Z,1006.64
2019-04-10T02:51:47.611Z,1006.63
2019-04-10T02:52:48.216Z,1006.59
2019-04-10T02:53:48.044Z,1006.57
2019-04-10T02:54:46.238Z,1006.61
2019-04-10T02:55:47.499Z,1006.58
2019-04-10T02:56:47.705Z,1006.58
2019-04-10T02:57:46.674Z,1006.56
2019-04-10T02:58:47.099Z,1006.55
2019-04-10T02:59:47.063Z,1006.58
2019-04-10T03:00:46.432Z,1006.60
2019-04-10T03:01:47.429Z,1006.69
2019-04-10T03:02:47.751Z,1006.67
2019-04-10T03:03:46.505Z,1006.67
2019-04-10T03:04:46.594Z,1006.65
2019-04-10T03:05:46.666Z,1006.63
2019-04-10T03:06:47.120Z,1006.66
2019-04-10T03:07:46.463Z,1006.67
2019-04-10T03:09:05.944Z,1006.64
2019-04-10T03:10:00.962Z,1006.64
2019-04-10T03:10:52.634Z,1006.65
2019-04-10T03:11:47.433Z,1006.63
2019-04-10T03:12:46.386Z,1006.64
2019-04-10T03:13:47.282Z,1006.60
2019-04-10T03:14:47.602Z,1006.61
2019-04-10T03:15:47.512Z,1006.58
2019-04-10T03:16:46.052Z,1006.58
2019-04-10T03:17:46.261Z,1006.59
2019-04-10T03:18:46.031Z,1006.62
2019-04-10T03:19:46.025Z,1006.60
2019-04-10T03:20:46.806Z,1006.61
2019-04-10T03:21:47.082Z,1006.59
2019-04-10T03:22:47.119Z,1006.60
2019-04-10T03:23:45.995Z,1006.63
2019-04-10T03:24:46.487Z,1006.66
2019-04-10T03:25:45.974Z,1006.64
2019-04-10T03:26:45.971Z,1006.63
2019-04-10T03:27:46.867Z,1006.62
2019-04-10T03:28:45.954Z,1006.64
2019-04-10T03:29:46.397Z,1006.60
2019-04-10T03:30:46.696Z,1006.61
2019-04-10T03:31:47.779Z,1006.59
2019-04-10T03:32:51.569Z,1006.60
2019-04-10T03:33:49.369Z,1006.58
2019-04-10T03:34:48.234Z,1006.58
2019-04-10T03:35:47.116Z,1006.65
2019-04-10T03:36:45.889Z,1006.63
2019-04-10T03:37:46.686Z,1006.61
2019-04-10T03:38:55.347Z,1006.60
2019-04-10T03:39:46.756Z,1006.60
2019-04-10T03:40:45.903Z,1006.60
2019-04-10T03:41:45.846Z,1006.58
2019-04-10T03:42:45.835Z,1006.59
2019-04-10T03:43:45.874Z,1006.61
2019-04-10T03:44:45.824Z,1006.63
2019-04-10T03:45:46.687Z,1006.64
2019-04-10T03:46:46.833Z,1006.63
2019-04-10T03:47:45.800Z,1006.61
2019-04-10T03:48:45.790Z,1006.62
2019-04-10T03:49:46.333Z,1006.59
2019-04-10T03:50:45.923Z,1006.63
2019-04-10T03:51:45.762Z,1006.63
2019-04-10T03:52:45.762Z,1006.63
2019-04-10T03:53:46.647Z,1006.61
2019-04-10T03:54:46.068Z,1006.63
2019-04-10T03:55:45.733Z,1006.65
2019-04-10T03:56:45.782Z,1006.64
2019-04-10T03:57:46.872Z,1006.67
2019-04-10T03:58:45.705Z,1006.64
2019-04-10T03:59:45.701Z,1006.65
2019-04-10T04:00:46.710Z,1006.63
2019-04-10T04:01:45.685Z,1006.69
2019-04-10T04:02:46.394Z,1006.66
2019-04-10T04:03:45.776Z,1006.66
2019-04-10T04:04:46.024Z,1006.67
2019-04-10T04:05:46.552Z,1006.68
2019-04-10T04:06:46.041Z,1006.66
2019-04-10T04:07:46.497Z,1006.69
2019-04-10T04:08:45.884Z,1006.69
2019-04-10T04:09:46.044Z,1006.72
2019-04-10T04:10:45.811Z,1006.70
2019-04-10T04:11:46.121Z,1006.73
2019-04-10T04:12:46.693Z,1006.71
2019-04-10T04:13:45.909Z,1006.67
2019-04-10T04:14:46.383Z,1006.74
2019-04-10T04:15:46.335Z,1006.68
2019-04-10T04:16:45.558Z,1006.68
2019-04-10T04:17:46.508Z,1006.66
2019-04-10T04:18:45.702Z,1006.65
2019-04-10T04:19:46.279Z,1006.68
2019-04-10T04:20:45.530Z,1006.72
2019-04-10T04:21:45.522Z,1006.74
2019-04-10T04:22:46.122Z,1006.72
2019-04-10T04:23:45.497Z,1006.72
2019-04-10T04:24:46.129Z,1006.76
2019-04-10T04:25:46.244Z,1006.76
2019-04-10T04:26:46.474Z,1006.76
2019-04-10T04:27:46.342Z,1006.74
2019-04-10T04:28:45.458Z,1006.78
2019-04-10T04:29:45.469Z,1006.72
2019-04-10T04:30:45.719Z,1006.79
2019-04-10T04:31:45.430Z,1006.78
2019-04-10T04:32:46.148Z,1006.82
2019-04-10T04:33:45.416Z,1006.79
2019-04-10T04:34:45.485Z,1006.88
2019-04-10T04:35:45.897Z,1006.83
2019-04-10T04:36:45.390Z,1006.89
2019-04-10T04:37:46.276Z,1006.88
2019-04-10T04:38:45.376Z,1006.84
2019-04-10T04:39:45.391Z,1006.86
2019-04-10T04:40:46.321Z,1006.88
2019-04-10T04:41:45.350Z,1006.89
2019-04-10T04:42:45.344Z,1006.92
2019-04-10T04:43:47.176Z,1006.94
2019-04-10T04:44:45.454Z,1006.93
2019-04-10T04:45:46.250Z,1006.90
2019-04-10T04:46:45.307Z,1006.92
2019-04-10T04:47:45.299Z,1006.96
2019-04-10T04:48:45.399Z,1007.01
2019-04-10T04:49:45.285Z,1007.02
2019-04-10T04:50:45.717Z,1006.98
2019-04-10T04:51:45.718Z,1007.04
2019-04-10T04:52:45.660Z,1007.04
2019-04-10T04:53:45.252Z,1007.03
2019-04-10T04:54:45.629Z,1007.08
2019-04-10T04:55:45.232Z,1007.06
2019-04-10T04:56:46.273Z,1007.08
2019-04-10T04:57:45.219Z,1007.07
2019-04-10T04:58:45.616Z,1007.10
2019-04-10T04:59:45.196Z,1007.09
2019-04-10T05:00:45.942Z,1007.12
2019-04-10T05:01:45.180Z,1007.14
2019-04-10T05:02:45.177Z,1007.14
2019-04-10T05:03:46.082Z,1007.18
2019-04-10T05:04:45.841Z,1007.19
2019-04-10T05:05:45.153Z,1007.19
2019-04-10T05:06:45.818Z,1007.24
2019-04-10T05:07:55.517Z,1007.24
2019-04-10T05:08:46.256Z,1007.24
2019-04-10T05:09:45.972Z,1007.28
2019-04-10T05:10:45.373Z,1007.32
2019-04-10T05:11:45.094Z,1007.32
2019-04-10T05:12:45.263Z,1007.33
2019-04-10T05:13:45.084Z,1007.32
2019-04-10T05:14:46.083Z,1007.32
2019-04-10T05:15:45.069Z,1007.37
2019-04-10T05:16:45.698Z,1007.36
2019-04-10T05:17:45.152Z,1007.39
2019-04-10T05:18:45.682Z,1007.38
2019-04-10T05:19:45.032Z,1007.40
2019-04-10T05:20:49.636Z,1007.43
2019-04-10T05:21:45.664Z,1007.40
2019-04-10T05:22:45.667Z,1007.41
2019-04-10T05:23:44.998Z,1007.41
2019-04-10T05:24:44.995Z,1007.46
2019-04-10T05:25:45.489Z,1007.45
2019-04-10T05:26:44.970Z,1007.45
2019-04-10T05:27:44.964Z,1007.48
2019-04-10T05:28:44.956Z,1007.51
2019-04-10T05:29:45.107Z,1007.54
2019-04-10T05:30:45.256Z,1007.55
2019-04-10T05:31:44.929Z,1007.60
2019-04-10T05:32:44.923Z,1007.62
2019-04-10T05:33:44.966Z,1007.65
2019-04-10T05:34:44.904Z,1007.67
2019-04-10T05:35:45.054Z,1007.72
2019-04-10T05:36:44.890Z,1007.69
2019-04-10T05:37:45.688Z,1007.69
2019-04-10T05:38:45.978Z,1007.72
2019-04-10T05:39:49.128Z,1007.76
2019-04-10T05:40:44.858Z,1007.76
2019-04-10T05:41:44.850Z,1007.79
2019-04-10T05:42:45.017Z,1007.77
2019-04-10T05:43:44.850Z,1007.79
2019-04-10T05:44:44.825Z,1007.81
2019-04-10T05:45:44.816Z,1007.81
2019-04-10T05:46:45.238Z,1007.82
2019-04-10T05:47:44.802Z,1007.84
2019-04-10T05:48:44.789Z,1007.85
2019-04-10T05:49:45.030Z,1007.87
2019-04-10T05:50:53.857Z,1007.88
2019-04-10T05:51:45.724Z,1007.88
2019-04-10T05:52:45.109Z,1007.90
2019-04-10T05:53:44.941Z,1007.93
2019-04-10T05:54:44.744Z,1007.94
2019-04-10T05:55:45.224Z,1007.95
2019-04-10T05:56:44.843Z,1007.96
2019-04-10T05:57:44.878Z,1007.94
2019-04-10T05:58:44.907Z,1007.94
2019-04-10T05:59:44.704Z,1007.95
2019-04-10T06:00:45.056Z,1007.96
2019-04-10T06:01:45.732Z,1007.95
2019-04-10T06:02:44.678Z,1007.99
2019-04-10T06:03:45.652Z,1007.92
2019-04-10T06:04:45.478Z,1007.92
2019-04-10T06:05:44.657Z,1007.98
2019-04-10T06:06:44.645Z,1007.98
2019-04-10T06:07:45.443Z,1007.96
2019-04-10T06:08:44.630Z,1007.95
2019-04-10T06:09:54.092Z,1007.97
2019-04-10T06:10:45.664Z,1008.01
2019-04-10T06:11:45.780Z,1007.98
2019-04-10T06:12:44.780Z,1007.99
2019-04-10T06:13:45.168Z,1008.00
2019-04-10T06:14:44.584Z,1007.99
2019-04-10T06:15:45.437Z,1007.98
2019-04-10T06:16:44.774Z,1007.96
2019-04-10T06:17:44.894Z,1008.00
2019-04-10T06:18:45.181Z,1007.99
2019-04-10T06:19:44.831Z,1008.04
2019-04-10T06:20:45.263Z,1008.05
2019-04-10T06:21:44.536Z,1008.02
2019-04-10T06:22:45.495Z,1008.07
2019-04-10T06:23:44.516Z,1008.10
2019-04-10T06:24:44.674Z,1008.11
2019-04-10T06:25:45.669Z,1008.07
2019-04-10T06:26:45.788Z,1008.04
2019-04-10T06:27:45.020Z,1008.12
2019-04-10T06:28:44.478Z,1008.11
2019-04-10T06:29:45.016Z,1008.12
2019-04-10T06:30:44.470Z,1008.14
2019-04-10T06:31:45.085Z,1008.09
2019-04-10T06:32:45.463Z,1008.11
2019-04-10T06:33:44.498Z,1008.08
2019-04-10T06:34:44.433Z,1008.09
2019-04-10T06:35:44.740Z,1008.05
2019-04-10T06:36:44.431Z,1008.06
2019-04-10T06:37:44.412Z,1008.10
2019-04-10T06:38:45.402Z,1008.13
2019-04-10T06:39:44.987Z,1008.10
2019-04-10T06:40:44.389Z,1008.16
2019-04-10T06:41:44.383Z,1008.14
2019-04-10T06:42:49.770Z,1008.17
2019-04-10T06:43:45.350Z,1008.20
2019-04-10T06:44:44.600Z,1008.18
2019-04-10T06:45:44.357Z,1008.19
2019-04-10T06:46:44.500Z,1008.23
2019-04-10T06:47:44.550Z,1008.13
2019-04-10T06:48:44.562Z,1008.14
2019-04-10T06:49:44.325Z,1008.16
2019-04-10T06:50:44.774Z,1008.15
2019-04-10T06:51:45.110Z,1008.21
2019-04-10T06:52:45.053Z,1008.21
2019-04-10T06:53:44.984Z,1008.22
2019-04-10T06:54:44.845Z,1008.19
2019-04-10T06:55:44.891Z,1008.26
2019-04-10T06:56:45.372Z,1008.24
2019-04-10T06:57:50.934Z,1008.25
2019-04-10T06:58:44.414Z,1008.29
2019-04-10T06:59:44.251Z,1008.29
2019-04-10T07:00:48.646Z,1008.27
2019-04-10T07:01:48.807Z,1008.27
2019-04-10T07:02:44.409Z,1008.29
2019-04-10T07:03:52.735Z,1008.30
2019-04-10T07:04:51.564Z,1008.29
2019-04-10T07:05:59.899Z,1008.25
2019-04-10T07:06:57.525Z,1008.35
2019-04-10T07:07:51.270Z,1008.33
2019-04-10T07:08:49.846Z,1008.32
2019-04-10T07:09:45.342Z,1008.33
2019-04-10T07:10:53.083Z,1008.29
2019-04-10T07:11:44.951Z,1008.30
2019-04-10T07:12:44.172Z,1008.32
2019-04-10T07:13:44.936Z,1008.34
2019-04-10T07:14:47.712Z,1008.31
2019-04-10T07:15:45.464Z,1008.34
2019-04-10T07:16:44.343Z,1008.38
2019-04-10T07:17:45.024Z,1008.40
2019-04-10T07:18:47.771Z,1008.45
2019-04-10T07:19:45.636Z,1008.41
2019-04-10T07:20:44.223Z,1008.44
2019-04-10T07:21:44.115Z,1008.40
2019-04-10T07:22:46.539Z,1008.39
2019-04-10T07:23:44.981Z,1008.41
2019-04-10T07:24:44.130Z,1008.38
2019-04-10T07:25:45.774Z,1008.38
2019-04-10T07:26:46.583Z,1008.42
2019-04-10T07:27:44.173Z,1008.41
2019-04-10T07:28:46.333Z,1008.40
2019-04-10T07:29:44.628Z,1008.35
2019-04-10T07:30:44.054Z,1008.36
2019-04-10T07:31:44.680Z,1008.34
2019-04-10T07:32:47.265Z,1008.35
2019-04-10T07:33:45.160Z,1008.38
2019-04-10T07:34:44.524Z,1008.34
2019-04-10T07:35:44.354Z,1008.35
2019-04-10T07:36:45.517Z,1008.38
2019-04-10T07:37:44.493Z,1008.37
2019-04-10T07:38:44.012Z,1008.46
2019-04-10T07:39:44.786Z,1008.45
2019-04-10T07:40:44.965Z,1008.48
2019-04-10T07:41:45.169Z,1008.52
2019-04-10T07:42:44.206Z,1008.48
2019-04-10T07:43:44.771Z,1008.50
2019-04-10T07:44:43.981Z,1008.54
2019-04-10T07:45:43.971Z,1008.55
2019-04-10T07:46:43.977Z,1008.56
2019-04-10T07:47:44.122Z,1008.55
2019-04-10T07:48:43.959Z,1008.51
2019-04-10T07:49:44.093Z,1008.56
2019-04-10T07:50:45.552Z,1008.50
2019-04-10T07:51:44.634Z,1008.54
2019-04-10T07:52:43.935Z,1008.55
2019-04-10T07:53:43.927Z,1008.62
2019-04-10T07:54:44.996Z,1008.59
2019-04-10T07:55:57.487Z,1008.61
2019-04-10T07:56:43.913Z,1008.58
2019-04-10T07:57:47.247Z,1008.61
2019-04-10T07:58:44.034Z,1008.61
2019-04-10T07:59:43.896Z,1008.56
2019-04-10T08:00:44.827Z,1008.63
2019-04-10T08:01:43.891Z,1008.66
2019-04-10T08:02:43.885Z,1008.61
2019-04-10T08:03:43.920Z,1008.66
2019-04-10T08:04:43.880Z,1008.62
2019-04-10T08:05:44.106Z,1008.66
2019-04-10T08:06:44.704Z,1008.60
2019-04-10T08:07:44.934Z,1008.65
2019-04-10T08:08:44.797Z,1008.61
2019-04-10T08:09:44.526Z,1008.68
2019-04-10T08:10:45.082Z,1008.68
2019-04-10T08:11:44.792Z,1008.67
2019-04-10T08:12:50.031Z,1008.68
2019-04-10T08:13:44.816Z,1008.70
2019-04-10T08:14:44.275Z,1008.69
2019-04-10T08:15:43.824Z,1008.67
2019-04-10T08:16:43.823Z,1008.66
2019-04-10T08:17:44.429Z,1008.68
2019-04-10T08:18:43.808Z,1008.65
2019-04-10T08:19:43.811Z,1008.69
2019-04-10T08:20:44.131Z,1008.68
2019-04-10T08:21:44.352Z,1008.68
2019-04-10T08:22:44.860Z,1008.63
2019-04-10T08:23:44.583Z,1008.68
2019-04-10T08:24:46.206Z,1008.69
2019-04-10T08:25:43.805Z,1008.67
2019-04-10T08:26:43.782Z,1008.74
2019-04-10T08:27:43.871Z,1008.76
2019-04-10T08:28:43.778Z,1008.81
2019-04-10T08:29:43.778Z,1008.83
2019-04-10T08:30:43.960Z,1008.76
2019-04-10T08:31:44.264Z,1008.79
2019-04-10T08:32:54.927Z,1008.75
2019-04-10T08:33:44.109Z,1008.76
2019-04-10T08:34:44.260Z,1008.77
2019-04-10T08:35:43.759Z,1008.78
2019-04-10T08:36:43.758Z,1008.81
2019-04-10T08:37:43.770Z,1008.79
2019-04-10T08:38:43.748Z,1008.74
2019-04-10T08:39:47.240Z,1008.79
2019-04-10T08:40:43.946Z,1008.79
2019-04-10T08:41:43.807Z,1008.82
2019-04-10T08:42:46.052Z,1008.81
2019-04-10T08:43:43.895Z,1008.78
2019-04-10T08:44:44.524Z,1008.77
2019-04-10T08:45:48.675Z,1008.79
2019-04-10T08:46:44.187Z,1008.83
2019-04-10T08:47:44.253Z,1008.80
2019-04-10T08:48:43.722Z,1008.80
2019-04-10T08:49:43.719Z,1008.84
2019-04-10T08:50:44.017Z,1008.79
2019-04-10T08:51:43.746Z,1008.87
2019-04-10T08:52:44.558Z,1008.84
2019-04-10T08:53:44.619Z,1008.83
2019-04-10T08:54:44.630Z,1008.84
2019-04-10T08:55:43.708Z,1008.85
2019-04-10T08:56:44.846Z,1008.84
2019-04-10T08:57:43.847Z,1008.85
2019-04-10T08:58:43.689Z,1008.89
2019-04-10T08:59:44.505Z,1008.82
2019-04-10T09:00:44.805Z,1008.88
2019-04-10T09:01:43.678Z,1008.87
2019-04-10T09:02:44.432Z,1008.90
2019-04-10T09:03:43.673Z,1008.95
2019-04-10T09:04:44.705Z,1008.91
2019-04-10T09:05:44.814Z,1008.88
2019-04-10T09:06:43.975Z,1008.95
2019-04-10T09:07:44.265Z,1008.91
2019-04-10T09:08:43.704Z,1008.92
2019-04-10T09:09:43.819Z,1008.91
2019-04-10T09:10:44.746Z,1008.95
2019-04-10T09:11:43.648Z,1008.88
2019-04-10T09:12:43.651Z,1008.93
2019-04-10T09:13:44.391Z,1008.86
2019-04-10T09:14:43.641Z,1008.88
2019-04-10T09:15:43.635Z,1008.88
2019-04-10T09:16:44.758Z,1008.93
2019-04-10T09:17:43.848Z,1008.86
2019-04-10T09:18:43.630Z,1008.93
2019-04-10T09:19:44.347Z,1008.88
2019-04-10T09:20:43.662Z,1008.87
2019-04-10T09:21:43.739Z,1008.91
2019-04-10T09:23:07.617Z,1008.90
2019-04-10T09:23:50.227Z,1008.91
2019-04-10T09:24:44.603Z,1008.94
2019-04-10T09:25:43.777Z,1008.84
2019-04-10T09:26:44.537Z,1008.84
2019-04-10T09:27:44.217Z,1008.85
2019-04-10T09:28:43.605Z,1008.82
2019-04-10T09:29:44.522Z,1008.85
2019-04-10T09:30:44.819Z,1008.87
2019-04-10T09:31:43.996Z,1008.85
2019-04-10T09:32:44.398Z,1008.86
2019-04-10T09:33:43.590Z,1008.88
2019-04-10T09:34:46.403Z,1008.86
2019-04-10T09:35:44.623Z,1008.89
2019-04-10T09:36:43.756Z,1008.87
2019-04-10T09:37:43.580Z,1008.89
2019-04-10T09:38:44.135Z,1008.88
2019-04-10T09:39:43.572Z,1008.88
2019-04-10T09:40:44.647Z,1008.89
2019-04-10T09:41:43.909Z,1008.85
2019-04-10T09:42:43.835Z,1008.86
2019-04-10T09:43:43.562Z,1008.87
2019-04-10T09:44:44.387Z,1008.89
2019-04-10T09:45:43.798Z,1008.89
2019-04-10T09:46:43.557Z,1008.91
2019-04-10T09:47:43.885Z,1008.95
2019-04-10T09:48:44.256Z,1008.94
2019-04-10T09:49:46.787Z,1008.93
2019-04-10T09:50:43.911Z,1008.92
2019-04-10T09:51:43.544Z,1008.95
2019-04-10T09:52:44.041Z,1008.89
2019-04-10T09:53:43.535Z,1008.88
2019-04-10T09:54:43.636Z,1008.89
2019-04-10T09:55:44.726Z,1008.91
2019-04-10T09:56:44.199Z,1008.88
2019-04-10T09:57:43.530Z,1008.91
2019-04-10T09:58:44.713Z,1008.91
2019-04-10T09:59:45.566Z,1008.92
2019-04-10T10:00:43.780Z,1008.92
2019-04-10T10:01:44.492Z,1008.94
2019-04-10T10:02:43.515Z,1008.93
2019-04-10T10:03:44.426Z,1008.93
2019-04-10T10:04:43.898Z,1008.93
2019-04-10T10:05:44.556Z,1008.95
2019-04-10T10:06:43.509Z,1008.90
2019-04-10T10:07:43.504Z,1008.88
2019-04-10T10:08:43.758Z,1008.95
2019-04-10T10:09:43.507Z,1008.94
2019-04-10T10:10:43.503Z,1008.92
2019-04-10T10:11:43.512Z,1008.94
2019-04-10T10:12:43.498Z,1008.94
2019-04-10T10:13:43.722Z,1008.95
2019-04-10T10:14:44.331Z,1008.93
2019-04-10T10:15:43.497Z,1008.93
2019-04-10T10:16:44.213Z,1008.88
2019-04-10T10:17:44.498Z,1008.89
2019-04-10T10:18:43.705Z,1008.89
2019-04-10T10:19:43.494Z,1008.87
2019-04-10T10:20:43.955Z,1008.85
2019-04-10T10:21:43.486Z,1008.87
2019-04-10T10:22:43.487Z,1008.90
2019-04-10T10:23:44.616Z,1008.84
2019-04-10T10:24:43.704Z,1008.88
2019-04-10T10:25:43.713Z,1008.83
2019-04-10T10:26:46.045Z,1008.97
2019-04-10T10:27:44.667Z,1008.90
2019-04-10T10:28:43.488Z,1008.91
2019-04-10T10:29:44.119Z,1008.90
2019-04-10T10:30:43.941Z,1008.97
2019-04-10T10:31:44.461Z,1008.89
2019-04-10T10:32:43.785Z,1008.84
2019-04-10T10:33:43.495Z,1008.92
2019-04-10T10:34:43.498Z,1008.84
2019-04-10T10:35:43.499Z,1008.90
2019-04-10T10:36:46.678Z,1008.92
2019-04-10T10:37:43.511Z,1008.90
2019-04-10T10:38:43.512Z,1008.87
2019-04-10T10:39:43.519Z,1008.92
2019-04-10T10:40:43.703Z,1008.92
2019-04-10T10:41:44.652Z,1009.01
2019-04-10T10:42:43.575Z,1008.98
2019-04-10T10:43:44.581Z,1009.05
2019-04-10T10:44:43.533Z,1009.05
2019-04-10T10:45:43.535Z,1009.06
2019-04-10T10:46:43.973Z,1009.02
2019-04-10T10:47:44.279Z,1009.02
2019-04-10T10:48:44.154Z,1009.03
2019-04-10T10:49:44.442Z,1009.05
2019-04-10T10:50:43.659Z,1009.06
2019-04-10T10:51:44.666Z,1009.08
2019-04-10T10:52:43.860Z,1009.10
2019-04-10T10:53:44.085Z,1009.08
2019-04-10T10:54:43.595Z,1009.08
2019-04-10T10:55:43.593Z,1009.13
2019-04-10T10:56:44.634Z,1009.17
2019-04-10T10:57:43.683Z,1009.11
2019-04-10T10:58:43.963Z,1009.15
2019-04-10T10:59:43.933Z,1009.17
2019-04-10T11:00:43.627Z,1009.17
2019-04-10T11:01:44.241Z,1009.25
2019-04-10T11:02:43.718Z,1009.18
2019-04-10T11:03:44.615Z,1009.22
2019-04-10T11:04:43.654Z,1009.22
2019-04-10T11:05:44.510Z,1009.22
2019-04-10T11:06:55.226Z,1009.24
2019-04-10T11:07:43.673Z,1009.29
2019-04-10T11:08:43.904Z,1009.32
2019-04-10T11:09:44.457Z,1009.40
2019-04-10T11:10:47.980Z,1009.26
2019-04-10T11:11:43.704Z,1009.28
2019-04-10T11:12:44.182Z,1009.26
2019-04-10T11:13:43.724Z,1009.26
2019-04-10T11:14:43.738Z,1009.29
2019-04-10T11:15:45.891Z,1009.28
2019-04-10T11:16:43.743Z,1009.28
2019-04-10T11:17:44.736Z,1009.23
2019-04-10T11:18:43.768Z,1009.23
2019-04-10T11:19:45.591Z,1009.27
2019-04-10T11:20:43.978Z,1009.27
2019-04-10T11:21:44.998Z,1009.29
2019-04-10T11:22:44.691Z,1009.30
2019-04-10T11:23:43.948Z,1009.33
2019-04-10T11:24:44.525Z,1009.38
2019-04-10T11:25:43.906Z,1009.36
2019-04-10T11:26:44.099Z,1009.32
2019-04-10T11:27:43.849Z,1009.30
2019-04-10T11:28:43.853Z,1009.34
2019-04-10T11:29:45.443Z,1009.36
2019-04-10T11:30:44.945Z,1009.30
2019-04-10T11:32:44.469Z,1009.33
2019-04-10T11:33:49.671Z,1009.44
2019-04-10T11:34:43.911Z,1009.42
2019-04-10T11:35:44.011Z,1009.46
2019-04-10T11:36:44.137Z,1009.47
2019-04-10T11:37:46.839Z,1009.46
2019-04-10T11:38:45.379Z,1009.41
2019-04-10T11:39:47.178Z,1009.46
2019-04-10T11:40:45.614Z,1009.41
2019-04-10T11:41:45.803Z,1009.48
2019-04-10T11:42:44.736Z,1009.50
2019-04-10T11:43:46.168Z,1009.46
2019-04-10T11:44:45.655Z,1009.44
2019-04-10T11:45:48.778Z,1009.43
2019-04-10T11:46:44.028Z,1009.42
2019-04-10T11:47:44.984Z,1009.47
2019-04-10T11:48:45.515Z,1009.48
2019-04-10T11:49:45.162Z,1009.46
2019-04-10T11:50:44.459Z,1009.46
2019-04-10T11:51:46.227Z,1009.48
2019-04-10T11:52:49.768Z,1009.46
2019-04-10T11:53:47.666Z,1009.45
2019-04-10T11:54:46.269Z,1009.47
2019-04-10T11:55:50.132Z,1009.45
2019-04-10T11:56:48.260Z,1009.45
2019-04-10T11:57:45.911Z,1009.55
2019-04-10T11:59:47.416Z,1009.41
2019-04-10T12:00:51.229Z,1009.46
2019-04-10T12:01:46.415Z,1009.45
2019-04-10T12:02:47.388Z,1009.50
2019-04-10T12:03:50.421Z,1009.52
2019-04-10T12:04:52.987Z,1009.50
2019-04-10T12:05:46.360Z,1009.54
2019-04-10T12:06:46.615Z,1009.55
2019-04-10T12:09:08.322Z,1009.56